sensor_id;sensor_type;location;lat;lon;timestamp;pressure;altitude;pressure_sealevel;temperature;humidity
58843;BME280;44614;54.356;10.100;2023-04-22T00:01:04;101288.00;;;6.52;82.61
58843;BME280;44614;54.356;10.100;2023-04-22T00:03:30;101286.31;;;6.51;82.08
58843;BME280;44614;54.356;10.100;2023-04-22T00:05:57;101280.69;;;6.53;81.53
58843;BME280;44614;54.356;10.100;2023-04-22T00:08:22;101281.31;;;6.55;80.91
58843;BME280;44614;54.356;10.100;2023-04-22T00:10:47;101266.28;;;6.59;80.23
58843;BME280;44614;54.356;10.100;2023-04-22T00:13:13;101266.75;;;6.63;79.59
58843;BME280;44614;54.356;10.100;2023-04-22T00:15:38;101261.13;;;6.64;79.16
58843;BME280;44614;54.356;10.100;2023-04-22T00:18:03;101258.00;;;6.67;78.89
58843;BME280;44614;54.356;10.100;2023-04-22T00:20:29;101143.28;;;6.01;78.40
58843;BME280;44614;54.356;10.100;2023-04-22T00:22:56;101261.19;;;6.71;78.20
58843;BME280;44614;54.356;10.100;2023-04-22T00:25:21;101250.13;;;6.72;78.08
58843;BME280;44614;54.356;10.100;2023-04-22T00:27:46;101247.38;;;6.72;78.01
58843;BME280;44614;54.356;10.100;2023-04-22T00:30:12;101245.50;;;6.73;77.84
58843;BME280;44614;54.356;10.100;2023-04-22T00:32:37;101239.00;;;6.74;77.87
58843;BME280;44614;54.356;10.100;2023-04-22T00:35:02;101238.34;;;6.72;78.17
58843;BME280;44614;54.356;10.100;2023-04-22T00:37:28;101233.91;;;6.71;78.22
58843;BME280;44614;54.356;10.100;2023-04-22T00:39:53;101230.34;;;6.70;77.96
58843;BME280;44614;54.356;10.100;2023-04-22T00:42:18;101230.34;;;6.70;77.92
58843;BME280;44614;54.356;10.100;2023-04-22T00:44:45;101234.75;;;6.71;77.85
58843;BME280;44614;54.356;10.100;2023-04-22T00:47:11;101226.38;;;6.73;77.79
58843;BME280;44614;54.356;10.100;2023-04-22T00:49:36;101218.19;;;6.73;77.89
58843;BME280;44614;54.356;10.100;2023-04-22T00:52:02;101217.38;;;6.72;77.87
58843;BME280;44614;54.356;10.100;2023-04-22T00:54:27;101214.81;;;6.71;78.30
58843;BME280;44614;54.356;10.100;2023-04-22T00:56:52;101207.84;;;6.68;78.54
58843;BME280;44614;54.356;10.100;2023-04-22T00:59:18;101206.81;;;6.69;78.59
58843;BME280;44614;54.356;10.100;2023-04-22T01:01:44;101201.34;;;6.69;78.55
58843;BME280;44614;54.356;10.100;2023-04-22T01:04:10;101203.25;;;6.69;78.62
58843;BME280;44614;54.356;10.100;2023-04-22T01:06:36;101201.34;;;6.69;78.56
58843;BME280;44614;54.356;10.100;2023-04-22T01:09:03;101199.66;;;6.68;78.45
58843;BME280;44614;54.356;10.100;2023-04-22T01:11:28;101195.22;;;6.67;78.71
58843;BME280;44614;54.356;10.100;2023-04-22T01:13:54;101200.50;;;6.69;78.39
58843;BME280;44614;54.356;10.100;2023-04-22T01:16:19;101197.78;;;6.69;78.64
58843;BME280;44614;54.356;10.100;2023-04-22T01:18:46;101192.31;;;6.69;78.51
58843;BME280;44614;54.356;10.100;2023-04-22T01:21:11;101192.31;;;6.69;78.49
58843;BME280;44614;54.356;10.100;2023-04-22T01:23:37;101187.88;;;6.68;78.92
58843;BME280;44614;54.356;10.100;2023-04-22T01:26:02;101191.66;;;6.67;78.97
58843;BME280;44614;54.356;10.100;2023-04-22T01:28:28;101187.44;;;6.64;79.12
58843;BME280;44614;54.356;10.100;2023-04-22T01:30:53;101180.47;;;6.62;79.41
58843;BME280;44614;54.356;10.100;2023-04-22T01:33:19;101174.16;;;6.61;79.57
58843;BME280;44614;54.356;10.100;2023-04-22T01:35:44;101173.97;;;6.63;79.55
58843;BME280;44614;54.356;10.100;2023-04-22T01:38:10;101173.13;;;6.62;79.50
58843;BME280;44614;54.356;10.100;2023-04-22T01:40:36;101181.31;;;6.62;79.65
58843;BME280;44614;54.356;10.100;2023-04-22T01:43:01;101173.97;;;6.63;79.90
58843;BME280;44614;54.356;10.100;2023-04-22T01:45:27;101166.63;;;6.63;79.86
58843;BME280;44614;54.356;10.100;2023-04-22T01:47:52;101172.28;;;6.62;79.94
58843;BME280;44614;54.356;10.100;2023-04-22T01:50:18;101162.41;;;6.61;80.10
58843;BME280;44614;54.356;10.100;2023-04-22T01:52:43;101163.41;;;6.59;80.19
58843;BME280;44614;54.356;10.100;2023-04-22T01:55:08;101166.34;;;6.58;80.59
58843;BME280;44614;54.356;10.100;2023-04-22T01:57:34;101157.50;;;6.56;80.64
58843;BME280;44614;54.356;10.100;2023-04-22T01:59:59;101153.28;;;6.53;80.94
58843;BME280;44614;54.356;10.100;2023-04-22T02:02:24;101153.66;;;6.50;81.03
58843;BME280;44614;54.356;10.100;2023-04-22T02:04:50;101151.28;;;6.47;81.17
58843;BME280;44614;54.356;10.100;2023-04-22T02:07:15;101149.63;;;6.46;81.55
58843;BME280;44614;54.356;10.100;2023-04-22T02:09:40;101142.63;;;6.44;81.84
58843;BME280;44614;54.356;10.100;2023-04-22T02:12:05;101143.88;;;6.41;82.18
58843;BME280;44614;54.356;10.100;2023-04-22T02:14:31;101149.72;;;6.38;82.58
58843;BME280;44614;54.356;10.100;2023-04-22T02:16:56;101138.97;;;6.37;82.74
58843;BME280;44614;54.356;10.100;2023-04-22T02:19:21;101137.28;;;6.35;83.18
58843;BME280;44614;54.356;10.100;2023-04-22T02:21:47;101126.56;;;6.34;83.36
58843;BME280;44614;54.356;10.100;2023-04-22T02:24:12;101134.09;;;6.32;83.82
58843;BME280;44614;54.356;10.100;2023-04-22T02:26:37;101129.00;;;6.29;84.31
58843;BME280;44614;54.356;10.100;2023-04-22T02:29:02;101125.63;;;6.27;84.41
58843;BME280;44614;54.356;10.100;2023-04-22T02:31:27;101126.84;;;6.24;84.76
58843;BME280;44614;54.356;10.100;2023-04-22T02:33:53;101128.72;;;6.24;85.08
58843;BME280;44614;54.356;10.100;2023-04-22T02:36:18;101129.78;;;6.23;84.94
58843;BME280;44614;54.356;10.100;2023-04-22T02:38:43;101115.47;;;6.21;84.77
58843;BME280;44614;54.356;10.100;2023-04-22T02:41:08;101120.91;;;6.21;84.73
58843;BME280;44614;54.356;10.100;2023-04-22T02:43:33;101115.66;;;6.19;84.93
58843;BME280;44614;54.356;10.100;2023-04-22T02:45:58;101108.53;;;6.18;85.04
58843;BME280;44614;54.356;10.100;2023-04-22T02:48:24;101110.38;;;6.18;85.14
58843;BME280;44614;54.356;10.100;2023-04-22T02:50:49;101105.97;;;6.17;85.17
58843;BME280;44614;54.356;10.100;2023-04-22T02:53:14;101100.50;;;6.17;85.25
58843;BME280;44614;54.356;10.100;2023-04-22T02:55:40;101103.44;;;6.15;85.51
58843;BME280;44614;54.356;10.100;2023-04-22T02:58:05;101106.16;;;6.15;85.33
58843;BME280;44614;54.356;10.100;2023-04-22T03:00:30;101106.16;;;6.15;84.99
58843;BME280;44614;54.356;10.100;2023-04-22T03:02:56;101095.63;;;6.12;84.91
58843;BME280;44614;54.356;10.100;2023-04-22T03:05:21;101092.22;;;6.10;85.56
58843;BME280;44614;54.356;10.100;2023-04-22T03:07:46;101089.69;;;6.08;85.74
58843;BME280;44614;54.356;10.100;2023-04-22T03:10:13;101083.41;;;6.08;85.91
58843;BME280;44614;54.356;10.100;2023-04-22T03:12:38;101084.25;;;6.08;86.52
58843;BME280;44614;54.356;10.100;2023-04-22T03:15:03;101017.81;;;5.72;86.41
58843;BME280;44614;54.356;10.100;2023-04-22T03:17:29;101076.75;;;6.10;86.37
58843;BME280;44614;54.356;10.100;2023-04-22T03:19:54;101075.50;;;6.13;86.26
58843;BME280;44614;54.356;10.100;2023-04-22T03:22:19;101077.00;;;6.16;86.00
58843;BME280;44614;54.356;10.100;2023-04-22T03:24:45;101075.13;;;6.16;85.97
58843;BME280;44614;54.356;10.100;2023-04-22T03:27:10;101065.91;;;6.17;85.95
58843;BME280;44614;54.356;10.100;2023-04-22T03:29:35;101066.94;;;6.16;85.87
58843;BME280;44614;54.356;10.100;2023-04-22T03:32:00;101062.34;;;6.17;85.96
58843;BME280;44614;54.356;10.100;2023-04-22T03:34:26;101058.75;;;6.16;86.00
58843;BME280;44614;54.356;10.100;2023-04-22T03:36:51;101061.50;;;6.16;86.02
58843;BME280;44614;54.356;10.100;2023-04-22T03:39:16;101045.13;;;6.16;86.16
58843;BME280;44614;54.356;10.100;2023-04-22T03:41:41;101058.75;;;6.16;86.25
58843;BME280;44614;54.356;10.100;2023-04-22T03:44:07;101046.34;;;6.14;86.39
58843;BME280;44614;54.356;10.100;2023-04-22T03:46:32;101040.25;;;6.12;86.55
58843;BME280;44614;54.356;10.100;2023-04-22T03:48:57;101044.03;;;6.10;87.07
58843;BME280;44614;54.356;10.100;2023-04-22T03:51:22;101033.13;;;6.10;87.04
58843;BME280;44614;54.356;10.100;2023-04-22T03:53:47;101029.34;;;6.12;87.20
58843;BME280;44614;54.356;10.100;2023-04-22T03:56:13;101028.31;;;6.13;86.96
58843;BME280;44614;54.356;10.100;2023-04-22T03:58:38;101027.25;;;6.14;87.38
58843;BME280;44614;54.356;10.100;2023-04-22T04:01:03;101023.88;;;6.12;87.07
58843;BME280;44614;54.356;10.100;2023-04-22T04:03:28;101014.19;;;6.09;87.38
58843;BME280;44614;54.356;10.100;2023-04-22T04:05:53;101013.16;;;6.10;87.52
58843;BME280;44614;54.356;10.100;2023-04-22T04:08:19;100996.41;;;6.13;87.27
58843;BME280;44614;54.356;10.100;2023-04-22T04:10:44;101005.28;;;6.15;87.29
58843;BME280;44614;54.356;10.100;2023-04-22T04:13:09;101005.91;;;6.17;86.89
58843;BME280;44614;54.356;10.100;2023-04-22T04:15:35;101008.00;;;6.15;87.27
58843;BME280;44614;54.356;10.100;2023-04-22T04:18:00;100997.25;;;6.14;87.15
58843;BME280;44614;54.356;10.100;2023-04-22T04:20:27;101001.69;;;6.15;87.43
58843;BME280;44614;54.356;10.100;2023-04-22T04:22:52;100995.00;;;6.17;87.15
58843;BME280;44614;54.356;10.100;2023-04-22T04:25:17;100993.78;;;6.20;87.29
58843;BME280;44614;54.356;10.100;2023-04-22T04:27:45;100991.53;;;6.23;87.04
58843;BME280;44614;54.356;10.100;2023-04-22T04:30:10;100983.97;;;6.25;86.85
58843;BME280;44614;54.356;10.100;2023-04-22T04:32:35;100987.38;;;6.27;86.52
58843;BME280;44614;54.356;10.100;2023-04-22T04:35:01;100979.66;;;6.31;86.29
58843;BME280;44614;54.356;10.100;2023-04-22T04:37:26;100977.19;;;6.36;85.89
58843;BME280;44614;54.356;10.100;2023-04-22T04:39:51;100973.50;;;6.44;85.58
58843;BME280;44614;54.356;10.100;2023-04-22T04:42:17;100977.81;;;6.53;84.78
58843;BME280;44614;54.356;10.100;2023-04-22T04:44:43;100981.44;;;6.60;84.35
58843;BME280;44614;54.356;10.100;2023-04-22T04:47:09;100980.03;;;6.64;84.15
58843;BME280;44614;54.356;10.100;2023-04-22T04:49:34;100983.84;;;6.70;83.56
58843;BME280;44614;54.356;10.100;2023-04-22T04:52:03;100981.00;;;6.78;83.26
58843;BME280;44614;54.356;10.100;2023-04-22T04:54:29;100983.81;;;6.84;82.92
58843;BME280;44614;54.356;10.100;2023-04-22T04:56:54;100986.97;;;6.88;82.94
58843;BME280;44614;54.356;10.100;2023-04-22T04:59:21;100979.88;;;6.94;82.66
58843;BME280;44614;54.356;10.100;2023-04-22T05:01:46;100979.09;;;7.00;82.29
58843;BME280;44614;54.356;10.100;2023-04-22T05:04:11;100981.25;;;7.04;82.12
58843;BME280;44614;54.356;10.100;2023-04-22T05:06:36;100974.16;;;7.10;81.68
58843;BME280;44614;54.356;10.100;2023-04-22T05:09:02;100986.84;;;7.18;81.26
58843;BME280;44614;54.356;10.100;2023-04-22T05:11:27;100978.69;;;7.24;80.79
58843;BME280;44614;54.356;10.100;2023-04-22T05:13:52;100982.13;;;7.33;79.77
58843;BME280;44614;54.356;10.100;2023-04-22T05:16:17;100968.09;;;7.43;79.03
58843;BME280;44614;54.356;10.100;2023-04-22T05:18:43;100970.50;;;7.52;78.28
58843;BME280;44614;54.356;10.100;2023-04-22T05:21:08;100968.88;;;7.65;77.05
58843;BME280;44614;54.356;10.100;2023-04-22T05:23:33;100972.75;;;7.77;75.93
58843;BME280;44614;54.356;10.100;2023-04-22T05:25:58;100975.75;;;7.89;75.49
58843;BME280;44614;54.356;10.100;2023-04-22T05:28:24;100965.06;;;8.00;74.86
58843;BME280;44614;54.356;10.100;2023-04-22T05:30:49;100977.97;;;8.13;74.24
58843;BME280;44614;54.356;10.100;2023-04-22T05:33:14;100976.78;;;8.29;73.21
58843;BME280;44614;54.356;10.100;2023-04-22T05:35:40;100975.59;;;8.45;72.02
58843;BME280;44614;54.356;10.100;2023-04-22T05:38:05;100978.78;;;8.62;71.55
58843;BME280;44614;54.356;10.100;2023-04-22T05:40:30;100976.28;;;8.73;71.17
58843;BME280;44614;54.356;10.100;2023-04-22T05:42:56;100994.44;;;8.88;70.53
58843;BME280;44614;54.356;10.100;2023-04-22T05:45:21;100971.06;;;9.05;69.36
58843;BME280;44614;54.356;10.100;2023-04-22T05:47:46;100966.66;;;9.24;69.06
58843;BME280;44614;54.356;10.100;2023-04-22T05:50:11;100966.63;;;9.37;68.71
58843;BME280;44614;54.356;10.100;2023-04-22T05:52:36;100964.50;;;9.52;67.33
58843;BME280;44614;54.356;10.100;2023-04-22T05:55:02;100964.03;;;9.69;66.57
58843;BME280;44614;54.356;10.100;2023-04-22T05:57:27;100958.13;;;9.85;66.01
58843;BME280;44614;54.356;10.100;2023-04-22T05:59:52;100946.03;;;9.99;65.28
58843;BME280;44614;54.356;10.100;2023-04-22T06:02:17;100953.16;;;10.14;64.45
58843;BME280;44614;54.356;10.100;2023-04-22T06:04:43;100950.16;;;10.29;64.62
58843;BME280;44614;54.356;10.100;2023-04-22T06:07:08;100945.47;;;10.42;64.47
58843;BME280;44614;54.356;10.100;2023-04-22T06:09:33;100943.47;;;10.56;63.57
58843;BME280;44614;54.356;10.100;2023-04-22T06:11:58;100939.16;;;10.67;62.52
58843;BME280;44614;54.356;10.100;2023-04-22T06:14:23;100940.78;;;10.81;62.57
58843;BME280;44614;54.356;10.100;2023-04-22T06:16:49;100942.81;;;10.92;61.72
58843;BME280;44614;54.356;10.100;2023-04-22T06:19:14;100938.03;;;11.06;61.85
58843;BME280;44614;54.356;10.100;2023-04-22T06:21:40;100932.88;;;11.16;60.82
58843;BME280;44614;54.356;10.100;2023-04-22T06:24:06;100934.66;;;11.29;61.33
58843;BME280;44614;54.356;10.100;2023-04-22T06:26:33;100929.44;;;11.46;60.95
58843;BME280;44614;54.356;10.100;2023-04-22T06:28:58;100937.94;;;11.63;60.12
58843;BME280;44614;54.356;10.100;2023-04-22T06:31:23;100930.59;;;11.75;59.57
58843;BME280;44614;54.356;10.100;2023-04-22T06:33:48;100922.81;;;11.90;58.70
58843;BME280;44614;54.356;10.100;2023-04-22T06:36:13;100919.09;;;12.03;58.83
58843;BME280;44614;54.356;10.100;2023-04-22T06:38:39;100922.28;;;12.18;58.85
58843;BME280;44614;54.356;10.100;2023-04-22T06:41:04;100913.44;;;12.28;57.17
58843;BME280;44614;54.356;10.100;2023-04-22T06:43:30;100908.69;;;12.35;57.54
58843;BME280;44614;54.356;10.100;2023-04-22T06:45:55;100909.13;;;12.51;57.09
58843;BME280;44614;54.356;10.100;2023-04-22T06:48:20;100910.16;;;12.68;55.99
58843;BME280;44614;54.356;10.100;2023-04-22T06:50:46;100908.50;;;12.79;56.18
58843;BME280;44614;54.356;10.100;2023-04-22T06:53:11;100912.22;;;12.96;56.28
58843;BME280;44614;54.356;10.100;2023-04-22T06:55:36;100901.94;;;13.15;55.92
58843;BME280;44614;54.356;10.100;2023-04-22T06:58:01;100894.53;;;13.27;54.41
58843;BME280;44614;54.356;10.100;2023-04-22T07:00:27;100891.41;;;13.35;54.57
58843;BME280;44614;54.356;10.100;2023-04-22T07:02:53;100904.97;;;13.49;54.47
58843;BME280;44614;54.356;10.100;2023-04-22T07:05:18;100899.09;;;13.57;54.11
58843;BME280;44614;54.356;10.100;2023-04-22T07:07:43;100881.22;;;13.71;53.53
58843;BME280;44614;54.356;10.100;2023-04-22T07:10:09;100879.97;;;13.90;54.45
58843;BME280;44614;54.356;10.100;2023-04-22T07:12:35;100878.25;;;14.01;53.84
58843;BME280;44614;54.356;10.100;2023-04-22T07:15:00;100866.06;;;14.14;52.32
58843;BME280;44614;54.356;10.100;2023-04-22T07:17:25;100864.00;;;14.21;51.66
58843;BME280;44614;54.356;10.100;2023-04-22T07:19:50;100859.16;;;14.28;51.15
58843;BME280;44614;54.356;10.100;2023-04-22T07:22:16;100854.06;;;14.37;51.41
58843;BME280;44614;54.356;10.100;2023-04-22T07:24:41;100851.63;;;14.52;51.08
58843;BME280;44614;54.356;10.100;2023-04-22T07:27:06;100852.22;;;14.71;50.96
58843;BME280;44614;54.356;10.100;2023-04-22T07:29:31;100865.13;;;14.82;50.27
58843;BME280;44614;54.356;10.100;2023-04-22T07:31:57;100862.38;;;14.82;50.08
58843;BME280;44614;54.356;10.100;2023-04-22T07:34:22;100855.44;;;14.97;50.44
58843;BME280;44614;54.356;10.100;2023-04-22T07:36:48;100855.75;;;15.17;49.92
58843;BME280;44614;54.356;10.100;2023-04-22T07:39:13;100850.28;;;15.22;49.53
58843;BME280;44614;54.356;10.100;2023-04-22T07:41:38;100856.34;;;15.19;49.70
58843;BME280;44614;54.356;10.100;2023-04-22T07:44:04;100848.75;;;15.31;49.85
58843;BME280;44614;54.356;10.100;2023-04-22T07:46:29;100853.75;;;15.51;49.59
58843;BME280;44614;54.356;10.100;2023-04-22T07:48:54;100851.88;;;15.74;49.67
58843;BME280;44614;54.356;10.100;2023-04-22T07:51:20;100849.81;;;15.86;48.11
58843;BME280;44614;54.356;10.100;2023-04-22T07:53:45;100848.97;;;15.86;48.10
58843;BME280;44614;54.356;10.100;2023-04-22T07:56:10;100853.06;;;16.05;48.66
58843;BME280;44614;54.356;10.100;2023-04-22T07:58:35;100851.78;;;16.40;49.24
58843;BME280;44614;54.356;10.100;2023-04-22T08:01:00;100859.41;;;16.54;47.39
58843;BME280;44614;54.356;10.100;2023-04-22T08:03:26;100854.22;;;16.63;46.58
58843;BME280;44614;54.356;10.100;2023-04-22T08:05:51;100855.59;;;16.88;48.22
58843;BME280;44614;54.356;10.100;2023-04-22T08:08:16;100850.84;;;17.20;48.90
58843;BME280;44614;54.356;10.100;2023-04-22T08:10:41;100841.03;;;17.45;47.33
58843;BME280;44614;54.356;10.100;2023-04-22T08:13:07;100833.28;;;17.52;46.01
58843;BME280;44614;54.356;10.100;2023-04-22T08:15:32;100829.09;;;17.49;45.12
58843;BME280;44614;54.356;10.100;2023-04-22T08:17:57;100834.72;;;17.65;46.28
58843;BME280;44614;54.356;10.100;2023-04-22T08:20:22;100827.22;;;17.60;44.95
58843;BME280;44614;54.356;10.100;2023-04-22T08:22:48;100828.28;;;17.54;44.08
58843;BME280;44614;54.356;10.100;2023-04-22T08:25:15;100822.13;;;17.42;44.44
58843;BME280;44614;54.356;10.100;2023-04-22T08:27:40;100817.47;;;17.58;45.75
58843;BME280;44614;54.356;10.100;2023-04-22T08:30:06;100828.66;;;17.73;45.09
58843;BME280;44614;54.356;10.100;2023-04-22T08:32:31;100810.66;;;17.86;44.95
58843;BME280;44614;54.356;10.100;2023-04-22T08:34:56;100814.03;;;17.88;43.62
58843;BME280;44614;54.356;10.100;2023-04-22T08:37:21;100814.84;;;17.88;43.61
58843;BME280;44614;54.356;10.100;2023-04-22T08:39:46;100810.88;;;17.74;43.81
58843;BME280;44614;54.356;10.100;2023-04-22T08:42:12;100813.97;;;17.77;44.02
58843;BME280;44614;54.356;10.100;2023-04-22T08:44:38;100801.19;;;17.76;43.78
58843;BME280;44614;54.356;10.100;2023-04-22T08:47:04;100811.59;;;18.01;44.67
58843;BME280;44614;54.356;10.100;2023-04-22T08:49:29;100808.53;;;18.08;43.37
58843;BME280;44614;54.356;10.100;2023-04-22T08:51:54;100801.25;;;17.97;43.36
58843;BME280;44614;54.356;10.100;2023-04-22T08:54:21;100793.16;;;17.75;44.56
58843;BME280;44614;54.356;10.100;2023-04-22T08:56:47;100796.81;;;17.91;45.03
58843;BME280;44614;54.356;10.100;2023-04-22T08:59:13;100790.72;;;17.99;44.74
58843;BME280;44614;54.356;10.100;2023-04-22T09:01:40;100773.47;;;17.97;44.18
58843;BME280;44614;54.356;10.100;2023-04-22T09:04:05;100772.94;;;17.90;45.04
58843;BME280;44614;54.356;10.100;2023-04-22T09:06:33;100776.88;;;18.09;45.17
58843;BME280;44614;54.356;10.100;2023-04-22T09:08:58;100776.31;;;18.17;43.41
58843;BME280;44614;54.356;10.100;2023-04-22T09:11:27;100769.13;;;18.32;43.78
58843;BME280;44614;54.356;10.100;2023-04-22T09:13:53;100766.88;;;18.34;43.09
58843;BME280;44614;54.356;10.100;2023-04-22T09:16:18;100759.38;;;18.44;43.84
58843;BME280;44614;54.356;10.100;2023-04-22T09:18:43;100755.75;;;18.64;43.29
58843;BME280;44614;54.356;10.100;2023-04-22T09:21:11;100759.13;;;18.87;43.69
58843;BME280;44614;54.356;10.100;2023-04-22T09:23:47;100753.56;;;18.87;42.15
58843;BME280;44614;54.356;10.100;2023-04-22T09:26:13;100759.69;;;18.73;42.83
58843;BME280;44614;54.356;10.100;2023-04-22T09:28:44;100762.19;;;18.80;42.30
58843;BME280;44614;54.356;10.100;2023-04-22T09:31:12;100759.66;;;18.84;42.29
58843;BME280;44614;54.356;10.100;2023-04-22T09:33:38;100761.91;;;18.87;43.12
58843;BME280;44614;54.356;10.100;2023-04-22T09:36:07;100760.44;;;19.15;43.21
58843;BME280;44614;54.356;10.100;2023-04-22T09:38:32;100764.59;;;19.22;42.74
58843;BME280;44614;54.356;10.100;2023-04-22T09:40:57;100748.38;;;19.45;42.58
58843;BME280;44614;54.356;10.100;2023-04-22T09:43:23;100749.69;;;19.73;43.50
58843;BME280;44614;54.356;10.100;2023-04-22T09:45:48;100749.56;;;19.93;42.63
58843;BME280;44614;54.356;10.100;2023-04-22T09:48:14;100755.09;;;20.04;40.96
58843;BME280;44614;54.356;10.100;2023-04-22T09:50:42;100757.63;;;19.95;40.64
58843;BME280;44614;54.356;10.100;2023-04-22T09:53:09;100757.50;;;20.15;41.97
58843;BME280;44614;54.356;10.100;2023-04-22T09:55:36;100756.84;;;20.29;40.58
58843;BME280;44614;54.356;10.100;2023-04-22T09:58:09;100761.84;;;20.32;40.56
58843;BME280;44614;54.356;10.100;2023-04-22T10:00:38;100745.41;;;20.30;41.80
58843;BME280;44614;54.356;10.100;2023-04-22T10:03:04;100740.63;;;20.36;40.40
58843;BME280;44614;54.356;10.100;2023-04-22T10:05:29;100739.59;;;20.27;40.14
58843;BME280;44614;54.356;10.100;2023-04-22T10:07:55;100733.53;;;20.14;40.37
58843;BME280;44614;54.356;10.100;2023-04-22T10:10:20;100734.69;;;20.08;41.12
58843;BME280;44614;54.356;10.100;2023-04-22T10:12:45;100731.94;;;20.03;41.50
58843;BME280;44614;54.356;10.100;2023-04-22T10:15:11;100721.78;;;20.23;43.09
58843;BME280;44614;54.356;10.100;2023-04-22T10:17:37;100713.22;;;20.43;41.00
58843;BME280;44614;54.356;10.100;2023-04-22T10:20:04;100707.78;;;20.28;40.73
58843;BME280;44614;54.356;10.100;2023-04-22T10:22:30;100719.47;;;20.30;40.41
58843;BME280;44614;54.356;10.100;2023-04-22T10:24:56;100703.38;;;20.21;41.09
58843;BME280;44614;54.356;10.100;2023-04-22T10:27:22;100699.09;;;20.34;41.33
58843;BME280;44614;54.356;10.100;2023-04-22T10:29:47;100693.59;;;20.58;40.30
58843;BME280;44614;54.356;10.100;2023-04-22T10:34:47;100698.78;;;20.99;40.31
58843;BME280;44614;54.356;10.100;2023-04-22T10:37:13;100693.72;;;21.01;39.43
58843;BME280;44614;54.356;10.100;2023-04-22T10:39:39;100684.25;;;20.97;39.44
58843;BME280;44614;54.356;10.100;2023-04-22T10:42:12;100696.56;;;21.20;39.01
58843;BME280;44614;54.356;10.100;2023-04-22T10:44:49;100686.09;;;21.31;39.89
58843;BME280;44614;54.356;10.100;2023-04-22T10:49:50;100676.50;;;21.42;38.97
58843;BME280;44614;54.356;10.100;2023-04-22T10:52:27;100677.09;;;21.39;38.75
58843;BME280;44614;54.356;10.100;2023-04-22T10:57:19;100669.41;;;21.26;38.16
58843;BME280;44614;54.356;10.100;2023-04-22T11:02:15;100662.78;;;21.22;40.88
58843;BME280;44614;54.356;10.100;2023-04-22T11:04:40;100667.75;;;21.49;39.91
58843;BME280;44614;54.356;10.100;2023-04-22T11:09:58;100655.78;;;21.43;39.27
58843;BME280;44614;54.356;10.100;2023-04-22T11:15:04;100653.00;;;21.19;39.95
58843;BME280;44614;54.356;10.100;2023-04-22T11:17:30;100653.47;;;21.02;40.62
58843;BME280;44614;54.356;10.100;2023-04-22T11:19:56;100642.56;;;21.06;40.33
58843;BME280;44614;54.356;10.100;2023-04-22T11:22:22;100643.56;;;21.15;40.92
58843;BME280;44614;54.356;10.100;2023-04-22T11:27:19;100635.41;;;21.42;40.37
58843;BME280;44614;54.356;10.100;2023-04-22T11:32:32;100625.78;;;21.30;41.42
58843;BME280;44614;54.356;10.100;2023-04-22T11:34:57;100613.66;;;21.58;39.83
58843;BME280;44614;54.356;10.100;2023-04-22T11:37:22;100619.41;;;21.67;40.74
58843;BME280;44614;54.356;10.100;2023-04-22T11:39:48;100612.97;;;21.66;39.46
58843;BME280;44614;54.356;10.100;2023-04-22T11:42:19;100613.81;;;21.67;39.97
58843;BME280;44614;54.356;10.100;2023-04-22T11:44:45;100606.63;;;21.80;38.92
58843;BME280;44614;54.356;10.100;2023-04-22T11:47:10;100607.00;;;21.73;39.19
58843;BME280;44614;54.356;10.100;2023-04-22T11:49:37;100599.59;;;21.63;39.67
58843;BME280;44614;54.356;10.100;2023-04-22T11:52:02;100605.38;;;21.72;39.63
58843;BME280;44614;54.356;10.100;2023-04-22T11:54:29;100612.25;;;21.61;38.03
58843;BME280;44614;54.356;10.100;2023-04-22T11:56:55;100608.09;;;21.58;38.66
58843;BME280;44614;54.356;10.100;2023-04-22T11:59:22;100600.00;;;21.76;40.06
58843;BME280;44614;54.356;10.100;2023-04-22T12:01:48;100606.19;;;22.05;39.05
58843;BME280;44614;54.356;10.100;2023-04-22T12:04:13;100613.03;;;22.32;38.67
58843;BME280;44614;54.356;10.100;2023-04-22T12:06:38;100597.22;;;22.41;37.67
58843;BME280;44614;54.356;10.100;2023-04-22T12:09:06;100605.63;;;22.69;37.84
58843;BME280;44614;54.356;10.100;2023-04-22T12:11:31;100599.25;;;22.96;36.35
58843;BME280;44614;54.356;10.100;2023-04-22T12:13:56;100593.59;;;23.37;37.64
58843;BME280;44614;54.356;10.100;2023-04-22T12:16:38;100585.63;;;23.67;37.24
58843;BME280;44614;54.356;10.100;2023-04-22T12:19:04;100594.44;;;23.96;36.20
58843;BME280;44614;54.356;10.100;2023-04-22T12:21:29;100585.91;;;24.32;35.57
58843;BME280;44614;54.356;10.100;2023-04-22T12:23:59;100581.25;;;24.50;35.01
58843;BME280;44614;54.356;10.100;2023-04-22T12:26:25;100589.69;;;24.99;35.52
58843;BME280;44614;54.356;10.100;2023-04-22T12:28:51;100582.25;;;25.03;33.24
58843;BME280;44614;54.356;10.100;2023-04-22T12:31:16;100576.00;;;25.06;34.35
58843;BME280;44614;54.356;10.100;2023-04-22T12:33:42;100569.78;;;25.44;34.01
58843;BME280;44614;54.356;10.100;2023-04-22T12:36:08;100567.00;;;25.70;34.22
58843;BME280;44614;54.356;10.100;2023-04-22T12:38:33;100563.84;;;25.71;32.79
58843;BME280;44614;54.356;10.100;2023-04-22T12:40:59;100567.19;;;24.90;31.68
58843;BME280;44614;54.356;10.100;2023-04-22T12:43:24;100553.16;;;24.90;33.37
58843;BME280;44614;54.356;10.100;2023-04-22T12:45:49;100563.09;;;24.96;32.72
58843;BME280;44614;54.356;10.100;2023-04-22T12:48:15;100550.25;;;25.21;33.01
58843;BME280;44614;54.356;10.100;2023-04-22T12:50:40;100563.66;;;25.33;31.79
58843;BME280;44614;54.356;10.100;2023-04-22T12:53:05;100553.94;;;25.39;31.92
58843;BME280;44614;54.356;10.100;2023-04-22T12:55:31;100547.81;;;25.46;32.70
58843;BME280;44614;54.356;10.100;2023-04-22T12:57:56;100557.72;;;25.43;31.63